Time;durP1;ratioP1;P1;durP2;ratioP2;P2;SDS_P1;SDS_P2;PMS_P1;PMS_P2;Temp;Humidity;BMP_temperature;BMP_pressure;BME280_temperature;BME280_humidity;BME280_pressure;Samples;Min_cycle;Max_cycle;Signal;HPM_P1;HPM_P2
2021/12/09 00:01:21;;;;;;;14.65;6.60;;;1.50;99.90;;;;;;5145817;27;20158;-71
2021/12/09 00:03:49;;;;;;;11.75;6.35;;;1.50;99.90;;;;;;5114834;27;20519;-71
2021/12/09 00:06:20;;;;;;;11.02;6.13;;;1.50;99.90;;;;;;5114961;27;20088;-70
2021/12/09 00:08:47;;;;;;;11.50;5.57;;;1.40;99.90;;;;;;5114806;28;20414;-71
2021/12/09 00:11:14;;;;;;;11.13;6.55;;;1.50;99.90;;;;;;5115081;27;20082;-71
2021/12/09 00:13:42;;;;;;;12.93;6.28;;;1.40;99.90;;;;;;5115178;27;20433;-71
2021/12/09 00:16:09;;;;;;;8.80;6.38;;;1.40;99.90;;;;;;5114144;27;20165;-71
2021/12/09 00:18:36;;;;;;;12.90;6.60;;;1.40;99.90;;;;;;5115331;27;20522;-70
2021/12/09 00:21:03;;;;;;;11.93;6.45;;;1.40;99.90;;;;;;5115029;28;20134;-71
2021/12/09 00:23:30;;;;;;;11.23;6.80;;;1.40;99.90;;;;;;5114437;28;20051;-70
2021/12/09 00:25:57;;;;;;;11.98;5.80;;;1.40;99.90;;;;;;5114822;27;20051;-70
2021/12/09 00:28:24;;;;;;;11.90;6.22;;;1.40;99.90;;;;;;5114549;28;20082;-71
2021/12/09 00:30:52;;;;;;;11.90;6.75;;;1.40;99.90;;;;;;5119589;27;20134;-71
2021/12/09 00:33:19;;;;;;;15.85;6.13;;;1.30;99.90;;;;;;5155196;27;20082;-71
2021/12/09 00:35:50;;;;;;;10.10;5.78;;;1.30;99.90;;;;;;5156188;27;20102;-71
2021/12/09 00:38:22;;;;;;;14.35;6.90;;;1.30;99.90;;;;;;5155468;27;20050;-70
2021/12/09 00:40:50;;;;;;;11.43;6.20;;;1.30;99.90;;;;;;5155962;27;20042;-71
2021/12/09 00:43:20;;;;;;;16.33;7.50;;;1.20;99.90;;;;;;5155484;27;20050;-70
2021/12/09 00:45:47;;;;;;;12.38;6.80;;;1.20;99.90;;;;;;5156292;27;20058;-70
2021/12/09 00:48:15;;;;;;;13.02;6.65;;;1.20;99.90;;;;;;5155936;27;20132;-69
2021/12/09 00:50:42;;;;;;;16.65;7.00;;;1.20;99.90;;;;;;5155681;27;20050;-70
2021/12/09 00:53:09;;;;;;;11.77;7.00;;;1.20;99.90;;;;;;5174299;27;20531;-69
2021/12/09 00:55:36;;;;;;;14.85;6.57;;;1.20;99.90;;;;;;5155884;27;20185;-69
2021/12/09 00:58:03;;;;;;;12.77;7.75;;;1.20;99.90;;;;;;5155100;27;20541;-70
2021/12/09 01:00:31;;;;;;;12.75;7.20;;;1.10;99.90;;;;;;5138380;27;20053;-70
2021/12/09 01:02:59;;;;;;;11.40;6.68;;;1.20;99.90;;;;;;5114281;28;20057;-70
2021/12/09 01:05:28;;;;;;;12.10;7.72;;;1.20;99.90;;;;;;5132068;28;20047;-70
2021/12/09 01:07:56;;;;;;;14.27;7.75;;;1.20;99.90;;;;;;5114276;28;20134;-70
2021/12/09 01:10:24;;;;;;;16.73;7.20;;;1.20;99.90;;;;;;5114493;28;20075;-70
2021/12/09 01:12:52;;;;;;;11.88;7.45;;;1.10;99.90;;;;;;5114104;28;20047;-70
2021/12/09 01:15:20;;;;;;;15.45;7.93;;;1.10;99.90;;;;;;5114195;28;20093;-70
2021/12/09 01:17:48;;;;;;;14.40;9.13;;;1.00;99.90;;;;;;5132364;28;20082;-70
2021/12/09 01:20:19;;;;;;;13.07;8.60;;;1.10;99.90;;;;;;5131886;28;20582;-70
2021/12/09 01:22:47;;;;;;;15.68;8.98;;;1.10;99.90;;;;;;5114464;28;20134;-70
2021/12/09 01:25:16;;;;;;;17.35;8.43;;;1.20;99.90;;;;;;5114655;28;20146;-68
2021/12/09 01:27:46;;;;;;;13.30;8.15;;;1.20;99.90;;;;;;5113591;28;20079;-70
2021/12/09 01:30:16;;;;;;;12.77;8.13;;;1.20;99.90;;;;;;5141718;27;20450;-70
2021/12/09 01:32:49;;;;;;;25.05;8.68;;;1.20;99.90;;;;;;5155731;27;20047;-70
2021/12/09 01:35:17;;;;;;;14.90;8.75;;;1.20;99.90;;;;;;5156333;27;20462;-70
2021/12/09 01:37:45;;;;;;;11.80;7.75;;;1.30;99.90;;;;;;5156468;27;20113;-69
2021/12/09 01:40:14;;;;;;;17.25;8.23;;;1.20;99.90;;;;;;5155797;27;20053;-68
2021/12/09 01:42:41;;;;;;;18.20;8.02;;;1.20;99.90;;;;;;5167522;27;20082;-69
2021/12/09 01:45:09;;;;;;;14.25;8.35;;;1.20;99.90;;;;;;5165492;27;20156;-70
2021/12/09 01:47:36;;;;;;;16.75;8.48;;;1.20;99.90;;;;;;5159381;27;20141;-70
2021/12/09 01:50:04;;;;;;;15.18;8.85;;;1.20;99.90;;;;;;5159805;27;20137;-70
2021/12/09 01:52:30;;;;;;;17.10;9.05;;;1.20;99.90;;;;;;5159689;27;20130;-70
2021/12/09 01:54:57;;;;;;;21.63;9.98;;;1.10;99.90;;;;;;5158106;27;20089;-70
2021/12/09 01:57:26;;;;;;;14.02;8.50;;;1.10;99.90;;;;;;5158976;27;20148;-71
2021/12/09 01:59:53;;;;;;;20.05;9.68;;;1.00;99.90;;;;;;5145540;27;20554;-70
2021/12/09 02:02:19;;;;;;;13.88;9.65;;;1.00;99.90;;;;;;5158124;27;20144;-71
2021/12/09 02:04:46;;;;;;;18.50;8.35;;;1.00;99.90;;;;;;5158746;27;20085;-71
2021/12/09 02:07:13;;;;;;;14.75;9.52;;;1.00;99.90;;;;;;5158522;27;20173;-70
2021/12/09 02:09:40;;;;;;;15.90;8.75;;;1.00;99.90;;;;;;5158236;27;20548;-70
2021/12/09 02:12:10;;;;;;;18.23;9.02;;;1.00;99.90;;;;;;5158850;27;20078;-71
2021/12/09 02:14:43;;;;;;;16.42;9.18;;;1.00;99.90;;;;;;5158342;27;20063;-71
2021/12/09 02:17:10;;;;;;;17.75;9.32;;;1.00;99.90;;;;;;5158815;27;20100;-71
2021/12/09 02:19:41;;;;;;;14.05;9.38;;;1.00;99.90;;;;;;5158803;27;20148;-70
2021/12/09 02:22:10;;;;;;;18.45;9.88;;;1.00;99.90;;;;;;5157969;27;20141;-70
2021/12/09 02:24:37;;;;;;;15.50;8.68;;;1.00;99.90;;;;;;5158072;27;20042;-71
2021/12/09 02:27:04;;;;;;;14.85;8.88;;;0.90;99.90;;;;;;5158205;27;20133;-71
2021/12/09 02:29:31;;;;;;;14.15;8.35;;;0.90;99.90;;;;;;5157153;27;20136;-70
2021/12/09 02:31:59;;;;;;;15.48;8.68;;;0.90;99.90;;;;;;5157908;27;20133;-71
2021/12/09 02:34:26;;;;;;;15.43;9.88;;;0.80;99.90;;;;;;5157153;27;20042;-70
2021/12/09 02:36:53;;;;;;;15.15;9.10;;;0.90;99.90;;;;;;5157115;27;20141;-70
2021/12/09 02:39:21;;;;;;;12.30;9.20;;;0.90;99.90;;;;;;5158021;27;20046;-70
2021/12/09 02:41:49;;;;;;;15.13;9.40;;;0.80;99.90;;;;;;5158397;27;20152;-69
2021/12/09 02:44:20;;;;;;;16.02;9.98;;;0.80;99.90;;;;;;5157183;27;20057;-70
2021/12/09 02:46:48;;;;;;;;;;;0.80;99.90;;;;;;5158305;27;20064;-69
2021/12/09 02:49:19;;;;;;;19.80;8.75;;;0.80;99.90;;;;;;5157998;27;19962;-70
2021/12/09 02:51:47;;;;;;;17.58;9.27;;;0.80;99.90;;;;;;5157094;27;20128;-70
2021/12/09 02:54:16;;;;;;;13.88;9.75;;;0.80;99.90;;;;;;5157764;27;20125;-70
2021/12/09 02:56:46;;;;;;;17.65;10.15;;;0.70;99.90;;;;;;5156775;27;20137;-69
2021/12/09 02:59:13;;;;;;;17.55;9.95;;;0.70;99.90;;;;;;5146553;27;20054;-70
2021/12/09 03:01:50;;;;;;;23.38;10.27;;;0.70;99.90;;;;;;5116079;27;20055;-70
2021/12/09 03:04:17;;;;;;;17.50;10.02;;;0.70;99.90;;;;;;5115681;27;20043;-70
2021/12/09 03:06:45;;;;;;;15.35;9.40;;;0.70;99.90;;;;;;5133042;27;20475;-70
2021/12/09 03:09:16;;;;;;;18.63;10.27;;;0.70;99.90;;;;;;5116289;27;20093;-70
2021/12/09 03:11:52;;;;;;;14.50;9.80;;;0.70;99.90;;;;;;5115504;27;20459;-70
2021/12/09 03:14:19;;;;;;;25.98;11.10;;;0.60;99.90;;;;;;5115824;27;20067;-70
2021/12/09 03:16:46;;;;;;;18.45;10.23;;;0.60;99.90;;;;;;5115943;27;20083;-70
2021/12/09 03:19:13;;;;;;;20.00;11.18;;;0.60;99.90;;;;;;5115568;27;20094;-71
2021/12/09 03:21:42;;;;;;;16.95;10.70;;;0.60;99.90;;;;;;5132653;27;20558;-70
2021/12/09 03:24:11;;;;;;;16.27;11.13;;;0.60;99.90;;;;;;5134222;27;20538;-70
2021/12/09 03:26:43;;;;;;;21.90;10.98;;;0.60;99.90;;;;;;5114795;27;20089;-71
2021/12/09 03:29:12;;;;;;;18.77;11.30;;;0.50;99.90;;;;;;5136274;27;20129;-71
2021/12/09 03:31:41;;;;;;;15.93;10.48;;;0.50;99.90;;;;;;5115440;27;20055;-70
2021/12/09 03:34:10;;;;;;;19.27;11.13;;;0.50;99.90;;;;;;5115405;27;20126;-71
2021/12/09 03:36:38;;;;;;;14.48;10.02;;;0.50;99.90;;;;;;5115621;27;20137;-70
2021/12/09 03:39:07;;;;;;;18.00;10.88;;;0.50;99.90;;;;;;5115184;27;20047;-70
2021/12/09 03:41:34;;;;;;;17.77;10.95;;;0.50;99.90;;;;;;5115824;27;20135;-70
2021/12/09 03:44:01;;;;;;;19.48;11.15;;;0.50;99.90;;;;;;5115782;27;20133;-70
2021/12/09 03:46:29;;;;;;;20.75;11.88;;;0.50;99.90;;;;;;5114807;27;20053;-71
2021/12/09 03:48:56;;;;;;;21.40;11.15;;;0.50;99.90;;;;;;5115418;27;20469;-70
2021/12/09 03:51:23;;;;;;;17.05;11.02;;;0.50;99.90;;;;;;5115049;27;20137;-70
2021/12/09 03:53:51;;;;;;;23.42;11.13;;;0.50;99.90;;;;;;5140968;27;20054;-69
2021/12/09 03:56:18;;;;;;;16.35;10.73;;;0.50;99.90;;;;;;5156359;27;20137;-70
2021/12/09 03:58:44;;;;;;;16.65;11.23;;;0.50;99.90;;;;;;5156387;27;20088;-70
2021/12/09 04:01:11;;;;;;;17.15;11.65;;;0.50;99.90;;;;;;5155848;27;20086;-70
2021/12/09 04:03:39;;;;;;;17.63;11.25;;;0.50;99.90;;;;;;5156406;27;20054;-70
2021/12/09 04:06:06;;;;;;;20.52;10.82;;;0.50;99.90;;;;;;5156372;27;20373;-70
2021/12/09 04:08:33;;;;;;;19.05;10.93;;;0.50;99.90;;;;;;5155656;27;20137;-70
2021/12/09 04:11:00;;;;;;;17.02;11.20;;;0.50;99.90;;;;;;5156002;27;20052;-71
2021/12/09 04:13:28;;;;;;;16.63;11.52;;;0.40;99.90;;;;;;5156130;27;20129;-70
2021/12/09 04:15:55;;;;;;;22.52;11.80;;;0.40;99.90;;;;;;5155712;27;20369;-70
2021/12/09 04:18:22;;;;;;;22.40;11.90;;;0.40;99.90;;;;;;5156199;27;20484;-70
2021/12/09 04:20:50;;;;;;;22.20;11.15;;;0.40;99.90;;;;;;5155963;27;20088;-70
2021/12/09 04:23:17;;;;;;;20.60;12.00;;;0.40;99.90;;;;;;5144835;27;20126;-70
2021/12/09 04:25:44;;;;;;;17.27;11.90;;;0.40;99.90;;;;;;5114790;27;20124;-70
2021/12/09 04:28:10;;;;;;;16.75;10.60;;;0.40;99.90;;;;;;5115079;27;20146;-70
2021/12/09 04:30:37;;;;;;;19.85;11.45;;;0.40;99.90;;;;;;5114732;27;20051;-71
2021/12/09 04:33:04;;;;;;;21.50;11.75;;;0.40;99.90;;;;;;5114973;28;20130;-71
2021/12/09 04:35:31;;;;;;;23.05;11.75;;;0.40;99.90;;;;;;5114168;28;20059;-70
2021/12/09 04:37:59;;;;;;;19.33;11.57;;;0.30;99.90;;;;;;5114803;28;20089;-70
2021/12/09 04:40:26;;;;;;;19.15;10.77;;;0.40;99.90;;;;;;5114541;28;20078;-70
2021/12/09 04:42:52;;;;;;;20.38;11.65;;;0.30;99.90;;;;;;5114107;28;20222;-70
2021/12/09 04:45:19;;;;;;;21.17;10.80;;;0.40;99.90;;;;;;5132951;28;20127;-70
2021/12/09 04:47:46;;;;;;;20.70;12.25;;;0.30;99.90;;;;;;5114554;28;20111;-69
2021/12/09 04:50:13;;;;;;;20.42;12.65;;;0.30;99.90;;;;;;5133003;27;20401;-69
2021/12/09 04:52:41;;;;;;;21.15;12.00;;;0.30;99.90;;;;;;5155740;27;20090;-69
2021/12/09 04:55:10;;;;;;;20.55;11.85;;;0.30;99.90;;;;;;5174509;27;20084;-70
2021/12/09 04:57:38;;;;;;;19.42;12.35;;;0.40;99.90;;;;;;5154795;27;20081;-70
2021/12/09 05:00:09;;;;;;;19.58;12.43;;;0.40;99.90;;;;;;5155897;27;20054;-71
2021/12/09 05:02:51;;;;;;;25.27;13.40;;;0.40;99.90;;;;;;5155710;27;20051;-70
2021/12/09 05:05:18;;;;;;;20.10;11.95;;;0.30;99.90;;;;;;5155025;27;20046;-70
2021/12/09 05:07:45;;;;;;;22.88;12.07;;;0.40;99.90;;;;;;5155864;27;20416;-69
2021/12/09 05:10:13;;;;;;;21.75;12.00;;;0.40;99.90;;;;;;5155859;27;20086;-70
2021/12/09 05:12:40;;;;;;;22.05;12.50;;;0.40;99.90;;;;;;5155165;27;20085;-69
2021/12/09 05:15:08;;;;;;;26.90;13.38;;;0.30;99.90;;;;;;5156566;27;20476;-70
2021/12/09 05:17:35;;;;;;;20.00;12.05;;;0.30;99.90;;;;;;5155193;27;20137;-70
2021/12/09 05:20:02;;;;;;;22.50;12.52;;;0.30;99.90;;;;;;5159161;27;20507;-70
2021/12/09 05:22:29;;;;;;;20.48;12.65;;;0.30;99.90;;;;;;5159598;27;20085;-70
2021/12/09 05:24:56;;;;;;;20.00;13.13;;;0.30;99.90;;;;;;5158858;27;20080;-70
2021/12/09 05:27:25;;;;;;;18.95;11.05;;;0.30;99.90;;;;;;5136260;27;20078;-68
2021/12/09 05:30:03;;;;;;;22.35;12.35;;;0.30;99.90;;;;;;5126530;27;20054;-68
2021/12/09 05:32:30;;;;;;;19.73;11.73;;;0.30;99.90;;;;;;5126633;27;20050;-68
2021/12/09 05:34:58;;;;;;;20.13;12.15;;;0.30;99.90;;;;;;5125080;27;20397;-68
2021/12/09 05:37:27;;;;;;;26.08;14.18;;;0.30;99.90;;;;;;5126908;27;20150;-68
2021/12/09 05:39:57;;;;;;;21.45;12.88;;;0.30;99.90;;;;;;5131862;27;20130;-68
2021/12/09 05:42:27;;;;;;;23.15;12.85;;;0.30;99.90;;;;;;5133354;27;20055;-68
2021/12/09 05:44:56;;;;;;;20.60;12.13;;;0.30;99.90;;;;;;5133378;27;20057;-68
2021/12/09 05:47:25;;;;;;;24.98;12.60;;;0.30;99.90;;;;;;5118373;27;20050;-68
2021/12/09 05:49:53;;;;;;;19.48;12.75;;;0.30;99.90;;;;;;5141957;27;20046;-68
2021/12/09 05:52:20;;;;;;;24.65;11.75;;;0.30;99.90;;;;;;5131321;27;20051;-68
2021/12/09 05:54:48;;;;;;;23.90;12.48;;;0.20;99.90;;;;;;5128343;27;20046;-68
2021/12/09 05:57:15;;;;;;;21.92;12.52;;;0.20;99.90;;;;;;5130474;27;20078;-68
2021/12/09 05:59:43;;;;;;;23.52;12.68;;;0.20;99.90;;;;;;5126138;27;20055;-68
2021/12/09 06:02:12;;;;;;;26.17;11.77;;;0.20;99.90;;;;;;5120701;27;20130;-68
2021/12/09 06:04:39;;;;;;;25.98;14.50;;;0.20;99.90;;;;;;5126319;27;20402;-69
2021/12/09 06:07:06;;;;;;;18.15;12.65;;;0.20;99.90;;;;;;5126990;27;20538;-68
2021/12/09 06:09:33;;;;;;;19.92;12.15;;;0.20;99.90;;;;;;5127064;27;20143;-68
2021/12/09 06:12:00;;;;;;;26.08;13.40;;;0.20;99.90;;;;;;5115570;27;20183;-68
2021/12/09 06:14:27;;;;;;;23.95;13.32;;;0.10;99.90;;;;;;5125710;27;20043;-69
2021/12/09 06:16:56;;;;;;;26.45;13.02;;;0.10;99.90;;;;;;5125651;27;20066;-69
2021/12/09 06:19:23;;;;;;;23.77;14.20;;;0.00;99.90;;;;;;5130840;27;20081;-68
2021/12/09 06:21:50;;;;;;;18.20;11.60;;;0.00;99.90;;;;;;5130908;27;20139;-68
2021/12/09 06:24:18;;;;;;;19.67;12.45;;;0.00;99.90;;;;;;5118840;27;20126;-68
2021/12/09 06:26:46;;;;;;;19.70;12.10;;;0.00;99.90;;;;;;5144864;27;20566;-67
2021/12/09 06:29:12;;;;;;;20.33;12.98;;;-0.10;99.90;;;;;;5130857;27;20047;-67
2021/12/09 06:31:40;;;;;;;18.10;12.02;;;-0.10;99.90;;;;;;5127467;27;20142;-68
2021/12/09 06:34:11;;;;;;;22.90;12.10;;;-0.20;99.90;;;;;;5136135;27;20051;-68
2021/12/09 06:36:38;;;;;;;23.58;13.82;;;-0.20;99.90;;;;;;5132172;27;20053;-68
2021/12/09 06:39:05;;;;;;;24.92;13.38;;;-0.20;99.90;;;;;;5128574;27;20083;-68
2021/12/09 06:41:32;;;;;;;19.90;12.85;;;-0.20;99.90;;;;;;5130547;27;20451;-69
2021/12/09 06:43:59;;;;;;;19.85;12.73;;;-0.20;99.90;;;;;;5127645;27;20051;-69
2021/12/09 06:46:26;;;;;;;20.05;13.90;;;-0.20;99.90;;;;;;5119579;27;20145;-68
2021/12/09 06:48:53;;;;;;;23.80;14.23;;;-0.20;99.90;;;;;;5122990;27;20180;-68
2021/12/09 06:51:21;;;;;;;26.55;14.45;;;-0.20;99.90;;;;;;5127684;27;20043;-67
2021/12/09 06:53:48;;;;;;;25.17;14.75;;;-0.30;99.90;;;;;;5124416;27;20047;-68
2021/12/09 06:56:15;;;;;;;21.77;13.25;;;-0.20;99.90;;;;;;5122665;27;20410;-68
2021/12/09 06:58:42;;;;;;;24.63;13.27;;;-0.20;99.90;;;;;;5130188;27;20490;-68
2021/12/09 07:01:09;;;;;;;23.60;13.52;;;-0.20;99.90;;;;;;5123151;27;20101;-67
2021/12/09 07:03:38;;;;;;;22.25;14.55;;;-0.20;99.90;;;;;;5124669;27;20135;-67
2021/12/09 07:06:08;;;;;;;21.35;13.63;;;-0.20;99.90;;;;;;5129342;27;20051;-67
2021/12/09 07:08:42;;;;;;;23.48;14.10;;;-0.20;99.90;;;;;;5126631;27;20050;-67
2021/12/09 07:11:09;;;;;;;25.65;13.73;;;-0.20;99.90;;;;;;5124657;27;20077;-68
2021/12/09 07:13:35;;;;;;;25.02;13.73;;;-0.20;99.90;;;;;;5137110;27;20047;-68
2021/12/09 07:16:03;;;;;;;24.08;13.40;;;-0.10;99.90;;;;;;5148133;27;20043;-68
2021/12/09 07:18:30;;;;;;;22.58;13.25;;;-0.10;99.90;;;;;;5145609;27;20450;-68
2021/12/09 07:20:58;;;;;;;22.33;13.07;;;-0.10;99.90;;;;;;5139448;27;20638;-67
2021/12/09 07:23:25;;;;;;;23.40;14.40;;;-0.10;99.90;;;;;;5133530;27;20082;-67
2021/12/09 07:25:53;;;;;;;20.80;13.80;;;-0.10;99.90;;;;;;5132898;27;20130;-68
2021/12/09 07:28:20;;;;;;;23.42;14.38;;;-0.10;99.90;;;;;;5133206;27;20394;-68
2021/12/09 07:30:47;;;;;;;26.50;13.80;;;-0.10;99.90;;;;;;5135083;27;20066;-68
2021/12/09 07:33:14;;;;;;;24.80;13.63;;;0.00;99.90;;;;;;5134416;27;20129;-68
2021/12/09 07:35:41;;;;;;;24.08;15.15;;;-0.10;99.90;;;;;;5135203;27;20450;-68
2021/12/09 07:38:08;;;;;;;23.35;13.55;;;0.00;99.90;;;;;;5130649;27;20134;-69
2021/12/09 07:40:35;;;;;;;22.80;13.27;;;0.00;99.90;;;;;;5134526;27;20510;-68
2021/12/09 07:43:04;;;;;;;26.20;12.85;;;0.00;99.90;;;;;;5134417;27;20058;-69
2021/12/09 07:45:32;;;;;;;23.38;13.15;;;0.10;99.90;;;;;;5134712;27;20046;-68
2021/12/09 07:47:59;;;;;;;22.33;13.15;;;0.10;99.90;;;;;;5134020;27;20054;-68
2021/12/09 07:50:29;;;;;;;21.63;12.40;;;0.10;99.90;;;;;;5135356;27;20134;-68
2021/12/09 07:52:56;;;;;;;24.43;13.23;;;0.10;99.90;;;;;;5133463;27;20062;-68
2021/12/09 07:55:24;;;;;;;19.65;12.73;;;0.10;99.90;;;;;;5134585;27;20459;-68
2021/12/09 07:57:52;;;;;;;25.27;12.70;;;0.10;99.90;;;;;;5138963;27;20470;-69
2021/12/09 08:00:22;;;;;;;18.75;11.88;;;0.10;99.90;;;;;;5140113;27;20051;-68
2021/12/09 08:02:50;;;;;;;20.83;12.00;;;0.10;99.90;;;;;;5134247;27;20525;-68
2021/12/09 08:05:19;;;;;;;24.55;13.05;;;0.10;99.90;;;;;;5130935;27;20429;-69
2021/12/09 08:07:46;;;;;;;22.95;12.40;;;0.10;99.90;;;;;;5132475;27;20095;-68
2021/12/09 08:10:16;;;;;;;29.35;13.80;;;0.20;99.90;;;;;;5139869;27;20171;-69
2021/12/09 08:12:43;;;;;;;22.23;12.97;;;0.20;99.90;;;;;;5135236;27;20050;-68
2021/12/09 08:15:12;;;;;;;21.55;12.73;;;0.40;99.90;;;;;;5136306;27;20050;-68
2021/12/09 08:17:58;;;;;;;23.38;11.98;;;0.60;99.90;;;;;;5137423;27;20050;-68
2021/12/09 08:20:26;;;;;;;20.75;11.75;;;0.90;99.90;;;;;;5151723;27;20133;-68
2021/12/09 08:22:53;;;;;;;19.55;12.38;;;1.20;99.90;;;;;;5130734;27;20054;-68
2021/12/09 08:25:19;;;;;;;21.17;11.05;;;1.50;99.90;;;;;;5148647;27;20077;-68
2021/12/09 08:27:46;;;;;;;19.33;10.82;;;1.90;99.90;;;;;;5130030;27;20522;-68
2021/12/09 08:30:15;;;;;;;17.83;9.77;;;2.30;99.90;;;;;;5149970;27;20081;-69
2021/12/09 08:32:43;;;;;;;16.65;10.05;;;2.80;99.90;;;;;;5133840;27;20133;-69
2021/12/09 08:35:11;;;;;;;14.73;9.35;;;3.30;99.90;;;;;;5132371;27;20483;-69
2021/12/09 08:37:37;;;;;;;17.17;9.45;;;3.80;99.90;;;;;;5134138;27;20130;-68
2021/12/09 08:40:06;;;;;;;15.85;8.05;;;4.20;99.90;;;;;;5132599;27;20097;-69
2021/12/09 08:42:33;;;;;;;18.27;9.07;;;4.50;99.90;;;;;;5134172;27;20540;-70
2021/12/09 08:45:00;;;;;;;13.93;7.57;;;4.80;99.90;;;;;;5133889;27;20490;-71
2021/12/09 08:47:27;;;;;;;15.32;7.78;;;5.20;99.90;;;;;;5153394;27;20114;-70
2021/12/09 08:49:56;;;;;;;12.75;6.97;;;5.60;99.90;;;;;;5133608;27;20086;-69
2021/12/09 08:52:23;;;;;;;10.35;6.65;;;5.90;99.90;;;;;;5134475;27;20063;-70
2021/12/09 08:54:50;;;;;;;13.95;8.05;;;6.10;99.90;;;;;;5137797;27;20051;-71
2021/12/09 08:57:19;;;;;;;16.50;7.47;;;6.30;99.90;;;;;;5138369;27;20061;-70
2021/12/09 08:59:46;;;;;;;10.85;6.90;;;6.60;99.90;;;;;;5138458;27;20046;-69
2021/12/09 09:02:14;;;;;;;11.88;6.68;;;6.80;99.90;;;;;;5138731;27;20086;-68
2021/12/09 09:04:42;;;;;;;13.95;7.63;;;7.10;99.90;;;;;;5138509;27;20398;-69
2021/12/09 09:07:11;;;;;;;14.98;6.65;;;7.50;99.90;;;;;;5139164;27;20076;-69
2021/12/09 09:09:39;;;;;;;13.32;7.30;;;7.70;99.90;;;;;;5132957;27;20065;-69
2021/12/09 09:12:08;;;;;;;12.80;6.20;;;8.00;99.90;;;;;;5137184;27;20062;-70
2021/12/09 09:14:35;;;;;;;10.30;6.10;;;8.20;99.90;;;;;;5137741;27;20097;-70
2021/12/09 09:17:02;;;;;;;10.68;6.93;;;8.40;99.90;;;;;;5136766;27;20066;-68
2021/12/09 09:19:29;;;;;;;13.18;5.97;;;8.80;99.90;;;;;;5137739;27;20478;-70
2021/12/09 09:21:57;;;;;;;11.95;6.65;;;9.30;99.90;;;;;;5136338;27;20097;-69
2021/12/09 09:24:25;;;;;;;11.00;6.00;;;9.50;99.90;;;;;;5137161;27;20107;-69
2021/12/09 09:26:52;;;;;;;13.65;6.15;;;9.50;99.90;;;;;;5134259;27;20226;-69
2021/12/09 09:29:19;;;;;;;8.75;5.40;;;9.60;99.90;;;;;;5137634;27;20059;-69
2021/12/09 09:31:46;;;;;;;10.73;6.00;;;9.70;99.90;;;;;;5136785;27;20059;-69
2021/12/09 09:34:13;;;;;;;10.85;5.90;;;9.50;99.90;;;;;;5137239;27;20089;-69
2021/12/09 09:36:44;;;;;;;11.05;5.95;;;9.80;99.90;;;;;;5136836;27;20042;-69
2021/12/09 09:39:17;;;;;;;9.85;5.72;;;10.10;99.90;;;;;;5136820;27;20076;-69
2021/12/09 09:41:54;;;;;;;8.30;5.57;;;10.40;99.90;;;;;;5134080;27;20542;-69
2021/12/09 09:44:27;;;;;;;10.27;6.15;;;10.60;99.90;;;;;;5134484;27;20043;-70
2021/12/09 09:46:57;;;;;;;12.25;5.97;;;10.90;99.90;;;;;;5136255;27;20058;-69
2021/12/09 09:49:25;;;;;;;11.40;5.95;;;10.90;99.90;;;;;;5136941;27;20138;-69
2021/12/09 09:51:52;;;;;;;12.73;6.15;;;11.10;99.90;;;;;;5135488;27;20085;-69
2021/12/09 09:54:19;;;;;;;12.35;5.43;;;11.40;99.90;;;;;;5136702;27;20059;-69
2021/12/09 09:56:49;;;;;;;9.57;5.10;;;11.40;99.90;;;;;;5136945;27;20088;-70
2021/12/09 09:59:17;;;;;;;7.57;4.45;;;11.60;99.90;;;;;;5140374;27;20046;-70
2021/12/09 10:01:46;;;;;;;9.38;5.55;;;11.80;99.90;;;;;;5136861;27;20161;-70
2021/12/09 10:04:20;;;;;;;10.48;5.15;;;12.00;99.90;;;;;;5136443;27;20086;-70
2021/12/09 10:06:48;;;;;;;11.35;5.15;;;12.10;99.90;;;;;;5136487;27;20059;-70
2021/12/09 10:09:19;;;;;;;9.25;5.00;;;12.30;99.90;;;;;;5131215;27;20108;-69
2021/12/09 10:11:47;;;;;;;14.13;5.38;;;12.50;99.90;;;;;;5136376;27;20042;-70
2021/12/09 10:14:16;;;;;;;9.13;4.50;;;12.80;99.90;;;;;;5135959;27;20513;-70
2021/12/09 10:16:45;;;;;;;11.77;5.40;;;12.60;99.90;;;;;;5135709;27;20117;-70
2021/12/09 10:19:21;;;;;;;9.07;5.00;;;12.80;99.90;;;;;;5133469;27;20395;-68
2021/12/09 10:21:48;;;;;;;9.55;4.40;;;12.80;99.90;;;;;;5135128;27;20089;-70
2021/12/09 10:24:17;;;;;;;7.18;4.80;;;13.10;99.90;;;;;;5136453;27;20090;-68
2021/12/09 10:26:45;;;;;;;9.45;5.30;;;13.40;99.90;;;;;;5134705;27;20470;-70
2021/12/09 10:29:20;;;;;;;10.40;4.68;;;13.50;99.90;;;;;;5132796;27;20560;-70
2021/12/09 10:31:52;;;;;;;8.25;5.00;;;13.30;99.90;;;;;;5138796;27;20042;-69
2021/12/09 10:34:36;;;;;;;9.90;5.47;;;13.20;99.90;;;;;;5134996;27;20054;-69
2021/12/09 10:37:06;;;;;;;10.63;4.95;;;13.00;99.90;;;;;;5136584;27;20076;-69
2021/12/09 10:39:35;;;;;;;;;;;12.10;99.90;;;;;;5136460;27;20058;-69
2021/12/09 10:42:05;;;;;;;8.38;4.40;;;11.60;99.90;;;;;;5135034;27;20039;-69
2021/12/09 10:44:51;;;;;;;11.02;5.78;;;10.70;99.90;;;;;;5132456;27;20053;-69
2021/12/09 10:47:32;;;;;;;8.10;4.85;;;9.80;99.90;;;;;;5129616;27;20039;-69
2021/12/09 10:50:14;;;;;;;11.00;5.25;;;8.80;99.90;;;;;;5135169;27;20042;-69
2021/12/09 10:52:47;;;;;;;11.57;4.50;;;7.90;99.90;;;;;;5134994;27;20053;-69
2021/12/09 10:55:21;;;;;;;9.50;4.95;;;7.30;99.90;;;;;;5134811;27;20047;-70
2021/12/09 10:57:58;;;;;;;9.93;5.13;;;6.70;99.90;;;;;;5135914;27;20047;-69
2021/12/09 11:00:37;;;;;;;8.07;4.80;;;6.20;99.90;;;;;;5136252;27;20099;-69
2021/12/09 11:03:12;;;;;;;26.35;5.90;;;5.80;99.90;;;;;;5134829;27;20072;-69
2021/12/09 11:05:42;;;;;;;16.10;6.72;;;5.40;99.90;;;;;;5135494;27;20054;-69
2021/12/09 11:08:26;;;;;;;14.07;6.30;;;5.00;99.90;;;;;;5135394;27;20138;-69
2021/12/09 11:11:06;;;;;;;13.30;6.80;;;4.80;99.90;;;;;;5135197;27;20089;-69
2021/12/09 11:13:39;;;;;;;10.40;6.88;;;4.60;99.90;;;;;;5134120;27;20078;-69
2021/12/09 11:16:08;;;;;;;13.00;6.45;;;4.40;99.90;;;;;;5131288;27;20092;-69
2021/12/09 11:18:39;;;;;;;15.57;6.38;;;4.30;99.90;;;;;;5134597;27;20111;-69
2021/12/09 11:21:14;;;;;;;12.65;6.85;;;4.10;99.90;;;;;;5135281;27;20126;-69
2021/12/09 11:23:45;;;;;;;13.10;6.75;;;4.00;99.90;;;;;;5153330;27;20051;-69
2021/12/09 11:26:49;;;;;;;11.90;6.05;;;3.90;99.90;;;;;;5134849;27;20047;-69
2021/12/09 11:29:19;;;;;;;13.55;6.45;;;3.80;99.90;;;;;;5068237;28;20056;-69
2021/12/09 11:31:56;;;;;;;14.35;6.32;;;3.60;99.90;;;;;;5119171;27;20058;-69
2021/12/09 11:34:27;;;;;;;13.27;6.90;;;3.60;99.90;;;;;;5135296;27;20055;-69
2021/12/09 11:37:01;;;;;;;11.48;7.22;;;3.50;99.90;;;;;;5134319;27;20046;-68
2021/12/09 11:39:35;;;;;;;17.17;6.65;;;3.40;99.90;;;;;;5134219;27;20047;-68
2021/12/09 11:42:18;;;;;;;13.13;7.13;;;3.40;99.90;;;;;;5133925;27;20053;-69
2021/12/09 11:44:45;;;;;;;14.25;7.05;;;3.40;99.90;;;;;;5130930;27;20083;-69
2021/12/09 11:47:15;;;;;;;13.68;7.97;;;3.40;99.90;;;;;;5149450;27;20129;-68
2021/12/09 11:49:44;;;;;;;16.17;7.63;;;3.30;99.90;;;;;;5134798;27;20078;-69
2021/12/09 11:52:12;;;;;;;14.90;7.97;;;3.20;99.90;;;;;;5131126;27;20054;-69
2021/12/09 11:54:39;;;;;;;15.00;7.85;;;3.20;99.90;;;;;;5134210;27;20107;-68
2021/12/09 11:57:18;;;;;;;13.65;8.30;;;3.20;99.90;;;;;;5133795;27;20443;-69
2021/12/09 12:11:58;;;;;;;16.48;8.65;;;3.10;99.90;;;;;;5132887;27;20081;-69
2021/12/09 12:14:34;;;;;;;15.15;8.95;;;3.10;99.90;;;;;;5133991;27;20061;-69
2021/12/09 12:17:16;;;;;;;19.33;8.85;;;3.10;99.90;;;;;;5131240;27;20051;-69
2021/12/09 12:20:16;;;;;;;23.17;9.68;;;3.10;99.90;;;;;;5122134;27;20722;-69
2021/12/09 12:23:12;;;;;;;16.90;7.90;;;3.00;99.90;;;;;;5131392;27;20076;-69
2021/12/09 12:28:55;;;;;;;22.33;9.15;;;3.10;99.90;;;;;;5132285;27;20082;-68
2021/12/09 12:32:02;;;;;;;21.58;8.88;;;3.10;99.90;;;;;;5133821;27;20051;-69
2021/12/09 12:37:56;;;;;;;11.75;7.70;;;3.10;99.90;;;;;;5138018;27;20035;-68
2021/12/09 12:40:24;;;;;;;;;;;3.10;99.90;;;;;;5141131;27;20123;-69
2021/12/09 12:42:58;;;;;;;17.23;8.18;;;3.10;99.90;;;;;;5132961;27;19923;-68
2021/12/09 12:45:47;;;;;;;17.00;8.73;;;3.10;99.90;;;;;;5134497;27;20494;-68
2021/12/09 12:48:44;;;;;;;18.10;8.75;;;3.10;99.90;;;;;;5132644;27;20050;-68
2021/12/09 12:51:16;;;;;;;16.88;8.98;;;3.10;99.90;;;;;;5139715;27;20057;-70
2021/12/09 12:53:47;;;;;;;14.63;8.48;;;3.20;99.90;;;;;;5142677;27;20053;-70
2021/12/09 12:56:16;;;;;;;12.73;8.27;;;3.20;99.90;;;;;;5142166;27;20054;-68
2021/12/09 12:59:17;;;;;;;19.30;8.65;;;3.20;99.90;;;;;;5142206;27;20091;-69
2021/12/09 13:01:49;;;;;;;12.60;8.45;;;3.20;99.90;;;;;;5134347;27;20137;-69
2021/12/09 13:04:41;;;;;;;16.33;8.57;;;3.20;99.90;;;;;;5136418;27;20130;-69
2021/12/09 13:07:18;;;;;;;17.90;10.13;;;3.30;99.90;;;;;;5134636;27;20402;-69
2021/12/09 13:09:54;;;;;;;15.98;8.88;;;3.30;99.90;;;;;;5134031;27;20055;-69
2021/12/09 13:12:39;;;;;;;19.35;10.00;;;3.30;99.90;;;;;;5134427;27;20533;-69
2021/12/09 13:15:20;;;;;;;20.50;10.45;;;3.30;99.90;;;;;;5134606;27;20079;-69